sensor_id;sensor_type;location;lat;lon;timestamp;P1;durP1;ratioP1;P2;durP2;ratioP2
75603;SDS011;64187;51.010;13.792;2023-02-28T00:01:45;7.55;;;3.78;;
75603;SDS011;64187;51.010;13.792;2023-02-28T00:06:44;8.55;;;4.78;;
75603;SDS011;64187;51.010;13.792;2023-02-28T00:11:43;8.95;;;3.92;;
75603;SDS011;64187;51.010;13.792;2023-02-28T00:16:42;9.18;;;4.18;;
75603;SDS011;64187;51.010;13.792;2023-02-28T00:21:41;7.43;;;4.03;;
75603;SDS011;64187;51.010;13.792;2023-02-28T00:26:41;8.82;;;4.43;;
75603;SDS011;64187;51.010;13.792;2023-02-28T00:31:40;8.57;;;4.43;;
75603;SDS011;64187;51.010;13.792;2023-02-28T00:36:39;8.57;;;4.18;;
75603;SDS011;64187;51.010;13.792;2023-02-28T00:41:39;11.73;;;4.78;;
75603;SDS011;64187;51.010;13.792;2023-02-28T00:46:38;10.77;;;4.57;;
75603;SDS011;64187;51.010;13.792;2023-02-28T00:51:37;11.63;;;4.93;;
75603;SDS011;64187;51.010;13.792;2023-02-28T00:56:36;9.02;;;4.75;;
75603;SDS011;64187;51.010;13.792;2023-02-28T01:01:35;10.52;;;4.85;;
75603;SDS011;64187;51.010;13.792;2023-02-28T01:06:34;8.95;;;4.22;;
75603;SDS011;64187;51.010;13.792;2023-02-28T01:11:33;7.93;;;4.65;;
75603;SDS011;64187;51.010;13.792;2023-02-28T01:16:33;9.07;;;4.18;;
75603;SDS011;64187;51.010;13.792;2023-02-28T01:21:33;7.88;;;4.30;;
75603;SDS011;64187;51.010;13.792;2023-02-28T01:26:33;5.97;;;3.80;;
75603;SDS011;64187;51.010;13.792;2023-02-28T01:31:32;8.27;;;3.90;;
75603;SDS011;64187;51.010;13.792;2023-02-28T01:36:31;6.72;;;3.80;;
75603;SDS011;64187;51.010;13.792;2023-02-28T01:41:31;8.00;;;3.72;;
75603;SDS011;64187;51.010;13.792;2023-02-28T01:46:32;6.53;;;3.40;;
75603;SDS011;64187;51.010;13.792;2023-02-28T01:51:41;7.10;;;3.22;;
75603;SDS011;64187;51.010;13.792;2023-02-28T01:57:12;8.48;;;3.95;;
75603;SDS011;64187;51.010;13.792;2023-02-28T02:02:15;7.43;;;4.07;;
75603;SDS011;64187;51.010;13.792;2023-02-28T02:07:17;8.38;;;3.65;;
75603;SDS011;64187;51.010;13.792;2023-02-28T02:12:29;7.07;;;3.50;;
75603;SDS011;64187;51.010;13.792;2023-02-28T02:17:39;6.75;;;3.55;;
75603;SDS011;64187;51.010;13.792;2023-02-28T02:44:11;6.57;;;3.53;;
75603;SDS011;64187;51.010;13.792;2023-02-28T02:49:21;8.80;;;4.18;;
75603;SDS011;64187;51.010;13.792;2023-02-28T02:54:27;8.57;;;3.85;;
75603;SDS011;64187;51.010;13.792;2023-02-28T02:59:29;7.43;;;3.65;;
75603;SDS011;64187;51.010;13.792;2023-02-28T03:04:30;6.05;;;4.05;;
75603;SDS011;64187;51.010;13.792;2023-02-28T03:09:34;8.20;;;4.30;;
75603;SDS011;64187;51.010;13.792;2023-02-28T03:14:43;6.50;;;4.50;;
75603;SDS011;64187;51.010;13.792;2023-02-28T03:30:10;6.15;;;3.65;;
75603;SDS011;64187;51.010;13.792;2023-02-28T03:35:14;6.68;;;3.47;;
75603;SDS011;64187;51.010;13.792;2023-02-28T03:40:21;8.82;;;4.78;;
75603;SDS011;64187;51.010;13.792;2023-02-28T03:45:25;8.68;;;4.43;;
75603;SDS011;64187;51.010;13.792;2023-02-28T03:55:32;8.98;;;4.03;;
75603;SDS011;64187;51.010;13.792;2023-02-28T04:00:36;7.88;;;4.50;;
75603;SDS011;64187;51.010;13.792;2023-02-28T04:05:45;8.40;;;4.20;;
75603;SDS011;64187;51.010;13.792;2023-02-28T04:11:02;8.55;;;3.95;;
75603;SDS011;64187;51.010;13.792;2023-02-28T04:16:08;8.02;;;4.18;;
75603;SDS011;64187;51.010;13.792;2023-02-28T04:21:21;8.65;;;4.60;;
75603;SDS011;64187;51.010;13.792;2023-02-28T04:26:22;7.72;;;4.63;;
75603;SDS011;64187;51.010;13.792;2023-02-28T04:31:21;9.07;;;4.72;;
75603;SDS011;64187;51.010;13.792;2023-02-28T04:36:20;10.55;;;5.10;;
75603;SDS011;64187;51.010;13.792;2023-02-28T04:41:21;9.50;;;5.18;;
75603;SDS011;64187;51.010;13.792;2023-02-28T04:46:21;8.80;;;5.25;;
75603;SDS011;64187;51.010;13.792;2023-02-28T04:51:21;9.23;;;4.78;;
75603;SDS011;64187;51.010;13.792;2023-02-28T04:56:20;9.05;;;4.80;;
75603;SDS011;64187;51.010;13.792;2023-02-28T05:01:26;9.38;;;4.72;;
75603;SDS011;64187;51.010;13.792;2023-02-28T05:06:26;8.25;;;4.47;;
75603;SDS011;64187;51.010;13.792;2023-02-28T05:11:30;9.13;;;5.20;;
75603;SDS011;64187;51.010;13.792;2023-02-28T05:16:34;10.57;;;5.20;;
75603;SDS011;64187;51.010;13.792;2023-02-28T05:21:34;8.07;;;4.00;;
75603;SDS011;64187;51.010;13.792;2023-02-28T05:26:41;13.27;;;6.93;;
75603;SDS011;64187;51.010;13.792;2023-02-28T05:31:41;8.32;;;3.97;;
75603;SDS011;64187;51.010;13.792;2023-02-28T05:36:40;9.05;;;4.90;;
75603;SDS011;64187;51.010;13.792;2023-02-28T05:41:39;6.82;;;4.47;;
75603;SDS011;64187;51.010;13.792;2023-02-28T05:46:39;8.32;;;5.32;;
75603;SDS011;64187;51.010;13.792;2023-02-28T05:51:38;9.82;;;5.32;;
75603;SDS011;64187;51.010;13.792;2023-02-28T05:56:38;10.00;;;5.60;;
75603;SDS011;64187;51.010;13.792;2023-02-28T06:01:39;9.25;;;5.97;;
75603;SDS011;64187;51.010;13.792;2023-02-28T06:06:47;12.43;;;5.22;;
75603;SDS011;64187;51.010;13.792;2023-02-28T06:11:47;10.73;;;5.70;;
75603;SDS011;64187;51.010;13.792;2023-02-28T06:16:46;9.13;;;5.38;;
75603;SDS011;64187;51.010;13.792;2023-02-28T06:21:45;10.73;;;6.25;;
75603;SDS011;64187;51.010;13.792;2023-02-28T06:26:48;9.32;;;5.43;;
75603;SDS011;64187;51.010;13.792;2023-02-28T06:31:47;10.07;;;5.43;;
75603;SDS011;64187;51.010;13.792;2023-02-28T06:36:47;13.25;;;6.15;;
75603;SDS011;64187;51.010;13.792;2023-02-28T06:41:49;10.80;;;6.22;;
75603;SDS011;64187;51.010;13.792;2023-02-28T06:46:53;12.80;;;6.03;;
75603;SDS011;64187;51.010;13.792;2023-02-28T06:51:52;18.40;;;6.30;;
75603;SDS011;64187;51.010;13.792;2023-02-28T06:56:51;12.88;;;6.05;;
75603;SDS011;64187;51.010;13.792;2023-02-28T07:01:50;12.32;;;6.57;;
75603;SDS011;64187;51.010;13.792;2023-02-28T07:06:49;10.32;;;6.57;;
75603;SDS011;64187;51.010;13.792;2023-02-28T07:11:47;13.23;;;6.30;;
75603;SDS011;64187;51.010;13.792;2023-02-28T07:16:47;11.63;;;6.15;;
75603;SDS011;64187;51.010;13.792;2023-02-28T07:21:46;16.08;;;6.18;;
75603;SDS011;64187;51.010;13.792;2023-02-28T07:26:44;10.50;;;6.05;;
75603;SDS011;64187;51.010;13.792;2023-02-28T07:31:43;14.25;;;7.57;;
75603;SDS011;64187;51.010;13.792;2023-02-28T07:36:42;13.90;;;6.55;;
75603;SDS011;64187;51.010;13.792;2023-02-28T07:41:41;12.38;;;6.63;;
75603;SDS011;64187;51.010;13.792;2023-02-28T07:46:42;12.38;;;6.43;;
75603;SDS011;64187;51.010;13.792;2023-02-28T07:51:40;14.50;;;6.55;;
75603;SDS011;64187;51.010;13.792;2023-02-28T07:56:40;12.13;;;6.35;;
75603;SDS011;64187;51.010;13.792;2023-02-28T08:01:38;13.43;;;6.75;;
75603;SDS011;64187;51.010;13.792;2023-02-28T08:06:37;14.15;;;6.55;;
75603;SDS011;64187;51.010;13.792;2023-02-28T08:11:36;10.85;;;6.22;;
75603;SDS011;64187;51.010;13.792;2023-02-28T08:16:35;14.20;;;6.65;;
75603;SDS011;64187;51.010;13.792;2023-02-28T08:21:34;14.95;;;6.50;;
75603;SDS011;64187;51.010;13.792;2023-02-28T08:26:33;13.93;;;7.20;;
75603;SDS011;64187;51.010;13.792;2023-02-28T08:31:32;11.98;;;6.57;;
75603;SDS011;64187;51.010;13.792;2023-02-28T08:36:31;15.02;;;6.82;;
75603;SDS011;64187;51.010;13.792;2023-02-28T08:41:30;12.63;;;6.68;;
75603;SDS011;64187;51.010;13.792;2023-02-28T08:46:30;14.52;;;6.40;;
75603;SDS011;64187;51.010;13.792;2023-02-28T08:51:29;12.20;;;6.95;;
75603;SDS011;64187;51.010;13.792;2023-02-28T08:56:28;12.85;;;6.82;;
75603;SDS011;64187;51.010;13.792;2023-02-28T09:01:28;11.15;;;7.00;;
75603;SDS011;64187;51.010;13.792;2023-02-28T09:06:28;14.00;;;7.28;;
75603;SDS011;64187;51.010;13.792;2023-02-28T09:11:28;21.08;;;6.95;;
75603;SDS011;64187;51.010;13.792;2023-02-28T09:16:27;13.90;;;7.55;;
75603;SDS011;64187;51.010;13.792;2023-02-28T09:21:26;12.00;;;5.70;;
75603;SDS011;64187;51.010;13.792;2023-02-28T09:26:27;8.35;;;5.22;;
75603;SDS011;64187;51.010;13.792;2023-02-28T09:31:39;8.85;;;5.88;;
75603;SDS011;64187;51.010;13.792;2023-02-28T09:36:38;12.95;;;5.53;;
75603;SDS011;64187;51.010;13.792;2023-02-28T09:41:44;9.45;;;5.38;;
75603;SDS011;64187;51.010;13.792;2023-02-28T09:46:51;11.80;;;5.97;;
75603;SDS011;64187;51.010;13.792;2023-02-28T09:51:56;10.55;;;5.60;;
75603;SDS011;64187;51.010;13.792;2023-02-28T09:57:01;9.05;;;4.53;;
75603;SDS011;64187;51.010;13.792;2023-02-28T10:12:38;8.57;;;4.28;;
75603;SDS011;64187;51.010;13.792;2023-02-28T10:17:42;7.53;;;4.25;;
75603;SDS011;64187;51.010;13.792;2023-02-28T10:23:07;10.10;;;4.70;;
75603;SDS011;64187;51.010;13.792;2023-02-28T10:33:21;11.05;;;4.70;;
75603;SDS011;64187;51.010;13.792;2023-02-28T10:38:28;7.18;;;4.40;;
75603;SDS011;64187;51.010;13.792;2023-02-28T10:43:38;10.18;;;5.18;;
75603;SDS011;64187;51.010;13.792;2023-02-28T11:09:28;9.35;;;5.05;;
75603;SDS011;64187;51.010;13.792;2023-02-28T11:14:36;10.00;;;5.18;;
75603;SDS011;64187;51.010;13.792;2023-02-28T11:19:46;10.00;;;5.28;;
75603;SDS011;64187;51.010;13.792;2023-02-28T11:24:51;8.50;;;4.93;;
75603;SDS011;64187;51.010;13.792;2023-02-28T11:29:51;9.02;;;4.72;;
75603;SDS011;64187;51.010;13.792;2023-02-28T11:40:14;10.07;;;6.05;;
75603;SDS011;64187;51.010;13.792;2023-02-28T11:45:23;6.13;;;4.30;;
75603;SDS011;64187;51.010;13.792;2023-02-28T12:06:44;8.48;;;5.20;;
75603;SDS011;64187;51.010;13.792;2023-02-28T12:27:31;8.98;;;5.53;;
75603;SDS011;64187;51.010;13.792;2023-02-28T12:32:39;7.40;;;5.47;;
75603;SDS011;64187;51.010;13.792;2023-02-28T12:42:56;8.55;;;5.50;;
75603;SDS011;64187;51.010;13.792;2023-02-28T12:48:03;10.00;;;6.10;;
75603;SDS011;64187;51.010;13.792;2023-02-28T12:53:06;10.35;;;5.38;;
75603;SDS011;64187;51.010;13.792;2023-02-28T12:58:47;12.52;;;6.05;;
75603;SDS011;64187;51.010;13.792;2023-02-28T13:03:45;12.00;;;6.75;;
75603;SDS011;64187;51.010;13.792;2023-02-28T13:09:01;9.15;;;5.70;;
75603;SDS011;64187;51.010;13.792;2023-02-28T13:14:04;10.57;;;5.93;;
75603;SDS011;64187;51.010;13.792;2023-02-28T13:19:16;13.15;;;6.22;;
75603;SDS011;64187;51.010;13.792;2023-02-28T13:29:42;12.77;;;6.25;;
75603;SDS011;64187;51.010;13.792;2023-02-28T13:40:14;13.75;;;7.40;;
75603;SDS011;64187;51.010;13.792;2023-02-28T13:55:36;13.90;;;7.47;;
75603;SDS011;64187;51.010;13.792;2023-02-28T14:06:09;13.38;;;7.57;;
75603;SDS011;64187;51.010;13.792;2023-02-28T14:11:26;13.95;;;7.47;;
75603;SDS011;64187;51.010;13.792;2023-02-28T14:16:26;12.45;;;7.07;;
75603;SDS011;64187;51.010;13.792;2023-02-28T14:21:34;15.13;;;7.18;;
75603;SDS011;64187;51.010;13.792;2023-02-28T14:37:33;11.73;;;7.07;;
75603;SDS011;64187;51.010;13.792;2023-02-28T14:42:36;12.93;;;6.68;;
75603;SDS011;64187;51.010;13.792;2023-02-28T14:47:42;10.82;;;6.70;;
75603;SDS011;64187;51.010;13.792;2023-02-28T14:52:42;13.88;;;7.32;;
75603;SDS011;64187;51.010;13.792;2023-02-28T14:57:49;16.20;;;7.63;;
75603;SDS011;64187;51.010;13.792;2023-02-28T15:02:51;16.77;;;8.18;;
75603;SDS011;64187;51.010;13.792;2023-02-28T15:08:06;11.23;;;7.00;;
75603;SDS011;64187;51.010;13.792;2023-02-28T15:13:12;13.25;;;7.30;;
75603;SDS011;64187;51.010;13.792;2023-02-28T15:18:21;18.60;;;7.80;;
75603;SDS011;64187;51.010;13.792;2023-02-28T15:23:36;12.05;;;7.30;;
75603;SDS011;64187;51.010;13.792;2023-02-28T15:28:38;13.43;;;7.50;;
75603;SDS011;64187;51.010;13.792;2023-02-28T15:33:37;14.27;;;7.50;;
75603;SDS011;64187;51.010;13.792;2023-02-28T15:38:51;15.13;;;8.23;;
75603;SDS011;64187;51.010;13.792;2023-02-28T15:49:17;13.50;;;7.28;;
75603;SDS011;64187;51.010;13.792;2023-02-28T15:54:21;13.93;;;7.88;;
75603;SDS011;64187;51.010;13.792;2023-02-28T15:59:24;13.57;;;7.57;;
75603;SDS011;64187;51.010;13.792;2023-02-28T16:04:26;13.07;;;8.43;;
75603;SDS011;64187;51.010;13.792;2023-02-28T16:09:28;12.60;;;7.60;;
75603;SDS011;64187;51.010;13.792;2023-02-28T16:14:32;16.48;;;8.32;;
75603;SDS011;64187;51.010;13.792;2023-02-28T16:19:33;16.50;;;8.43;;
75603;SDS011;64187;51.010;13.792;2023-02-28T16:24:33;16.17;;;8.18;;
75603;SDS011;64187;51.010;13.792;2023-02-28T16:29:35;17.08;;;7.63;;
75603;SDS011;64187;51.010;13.792;2023-02-28T16:34:35;14.00;;;8.48;;
75603;SDS011;64187;51.010;13.792;2023-02-28T16:39:35;18.15;;;8.65;;
75603;SDS011;64187;51.010;13.792;2023-02-28T16:44:34;15.38;;;7.47;;
75603;SDS011;64187;51.010;13.792;2023-02-28T16:49:34;16.50;;;8.20;;
75603;SDS011;64187;51.010;13.792;2023-02-28T16:54:36;14.77;;;8.10;;
75603;SDS011;64187;51.010;13.792;2023-02-28T16:59:35;17.15;;;8.15;;
75603;SDS011;64187;51.010;13.792;2023-02-28T17:04:34;15.88;;;8.38;;
75603;SDS011;64187;51.010;13.792;2023-02-28T17:09:33;15.27;;;8.38;;
75603;SDS011;64187;51.010;13.792;2023-02-28T17:14:41;14.23;;;7.57;;
75603;SDS011;64187;51.010;13.792;2023-02-28T17:19:40;12.75;;;8.25;;
75603;SDS011;64187;51.010;13.792;2023-02-28T17:24:41;15.50;;;8.70;;
75603;SDS011;64187;51.010;13.792;2023-02-28T17:29:40;20.10;;;8.30;;
75603;SDS011;64187;51.010;13.792;2023-02-28T17:34:40;17.95;;;8.90;;
75603;SDS011;64187;51.010;13.792;2023-02-28T17:39:39;18.65;;;9.20;;
75603;SDS011;64187;51.010;13.792;2023-02-28T17:44:37;18.98;;;9.43;;
75603;SDS011;64187;51.010;13.792;2023-02-28T17:49:36;21.73;;;10.18;;
75603;SDS011;64187;51.010;13.792;2023-02-28T17:54:36;15.35;;;8.88;;
75603;SDS011;64187;51.010;13.792;2023-02-28T17:59:35;18.20;;;9.63;;
75603;SDS011;64187;51.010;13.792;2023-02-28T18:04:33;19.75;;;9.65;;
75603;SDS011;64187;51.010;13.792;2023-02-28T18:09:33;16.40;;;8.40;;
75603;SDS011;64187;51.010;13.792;2023-02-28T18:14:32;18.45;;;9.57;;
75603;SDS011;64187;51.010;13.792;2023-02-28T18:19:31;23.23;;;9.90;;
75603;SDS011;64187;51.010;13.792;2023-02-28T18:24:30;19.00;;;10.13;;
75603;SDS011;64187;51.010;13.792;2023-02-28T18:29:29;21.10;;;9.68;;
75603;SDS011;64187;51.010;13.792;2023-02-28T18:34:30;21.45;;;9.77;;
75603;SDS011;64187;51.010;13.792;2023-02-28T18:39:29;23.40;;;9.65;;
75603;SDS011;64187;51.010;13.792;2023-02-28T18:44:28;16.27;;;9.05;;
75603;SDS011;64187;51.010;13.792;2023-02-28T18:49:27;16.27;;;8.48;;
75603;SDS011;64187;51.010;13.792;2023-02-28T18:54:26;21.73;;;9.93;;
75603;SDS011;64187;51.010;13.792;2023-02-28T18:59:25;20.20;;;10.40;;
75603;SDS011;64187;51.010;13.792;2023-02-28T19:04:24;22.60;;;11.20;;
75603;SDS011;64187;51.010;13.792;2023-02-28T19:09:23;19.40;;;10.52;;
75603;SDS011;64187;51.010;13.792;2023-02-28T19:14:22;19.52;;;9.98;;
75603;SDS011;64187;51.010;13.792;2023-02-28T19:19:21;18.30;;;9.60;;
75603;SDS011;64187;51.010;13.792;2023-02-28T19:24:19;22.23;;;11.48;;
75603;SDS011;64187;51.010;13.792;2023-02-28T19:29:18;19.15;;;10.65;;
75603;SDS011;64187;51.010;13.792;2023-02-28T19:34:17;26.17;;;12.68;;
75603;SDS011;64187;51.010;13.792;2023-02-28T19:39:16;24.70;;;11.15;;
75603;SDS011;64187;51.010;13.792;2023-02-28T19:44:16;25.42;;;13.18;;
75603;SDS011;64187;51.010;13.792;2023-02-28T19:49:15;27.08;;;14.10;;
75603;SDS011;64187;51.010;13.792;2023-02-28T19:54:15;28.33;;;15.25;;
75603;SDS011;64187;51.010;13.792;2023-02-28T19:59:14;33.35;;;14.90;;
75603;SDS011;64187;51.010;13.792;2023-02-28T20:04:19;28.83;;;15.15;;
75603;SDS011;64187;51.010;13.792;2023-02-28T20:09:18;29.02;;;14.63;;
75603;SDS011;64187;51.010;13.792;2023-02-28T20:14:17;29.88;;;15.43;;
75603;SDS011;64187;51.010;13.792;2023-02-28T20:19:16;30.40;;;13.13;;
75603;SDS011;64187;51.010;13.792;2023-02-28T20:24:16;30.95;;;13.40;;
75603;SDS011;64187;51.010;13.792;2023-02-28T20:29:15;30.08;;;15.18;;
75603;SDS011;64187;51.010;13.792;2023-02-28T20:34:13;27.48;;;14.43;;
75603;SDS011;64187;51.010;13.792;2023-02-28T20:39:13;30.98;;;15.45;;
75603;SDS011;64187;51.010;13.792;2023-02-28T20:44:12;31.00;;;14.52;;
75603;SDS011;64187;51.010;13.792;2023-02-28T20:49:11;28.27;;;14.73;;
75603;SDS011;64187;51.010;13.792;2023-02-28T20:54:13;27.20;;;14.25;;
75603;SDS011;64187;51.010;13.792;2023-02-28T20:59:13;26.35;;;13.77;;
75603;SDS011;64187;51.010;13.792;2023-02-28T21:04:12;25.60;;;14.45;;
75603;SDS011;64187;51.010;13.792;2023-02-28T21:09:12;30.15;;;15.05;;
75603;SDS011;64187;51.010;13.792;2023-02-28T21:14:13;29.85;;;14.60;;
75603;SDS011;64187;51.010;13.792;2023-02-28T21:19:14;27.15;;;14.52;;
75603;SDS011;64187;51.010;13.792;2023-02-28T21:24:15;29.77;;;16.23;;
75603;SDS011;64187;51.010;13.792;2023-02-28T21:29:15;35.58;;;17.05;;
75603;SDS011;64187;51.010;13.792;2023-02-28T21:34:14;29.65;;;16.08;;
75603;SDS011;64187;51.010;13.792;2023-02-28T21:39:15;27.85;;;14.95;;
75603;SDS011;64187;51.010;13.792;2023-02-28T21:44:16;29.88;;;14.52;;
75603;SDS011;64187;51.010;13.792;2023-02-28T21:49:20;31.30;;;15.27;;
75603;SDS011;64187;51.010;13.792;2023-02-28T21:54:18;28.95;;;14.38;;
75603;SDS011;64187;51.010;13.792;2023-02-28T21:59:17;30.73;;;14.75;;
75603;SDS011;64187;51.010;13.792;2023-02-28T22:04:17;32.13;;;15.50;;
75603;SDS011;64187;51.010;13.792;2023-02-28T22:09:20;35.28;;;15.85;;
75603;SDS011;64187;51.010;13.792;2023-02-28T22:14:19;27.30;;;14.88;;
75603;SDS011;64187;51.010;13.792;2023-02-28T22:19:19;34.88;;;16.23;;
75603;SDS011;64187;51.010;13.792;2023-02-28T22:24:18;28.05;;;16.15;;
75603;SDS011;64187;51.010;13.792;2023-02-28T22:29:21;31.25;;;15.55;;
75603;SDS011;64187;51.010;13.792;2023-02-28T22:34:20;27.33;;;14.52;;
75603;SDS011;64187;51.010;13.792;2023-02-28T22:39:19;27.60;;;14.32;;
75603;SDS011;64187;51.010;13.792;2023-02-28T22:44:18;32.55;;;15.05;;
75603;SDS011;64187;51.010;13.792;2023-02-28T22:49:17;30.08;;;15.50;;
75603;SDS011;64187;51.010;13.792;2023-02-28T22:54:16;33.95;;;15.63;;
75603;SDS011;64187;51.010;13.792;2023-02-28T22:59:15;31.88;;;14.88;;
75603;SDS011;64187;51.010;13.792;2023-02-28T23:04:13;32.50;;;15.82;;
75603;SDS011;64187;51.010;13.792;2023-02-28T23:09:16;30.58;;;15.23;;
75603;SDS011;64187;51.010;13.792;2023-02-28T23:14:17;29.42;;;14.07;;
75603;SDS011;64187;51.010;13.792;2023-02-28T23:19:22;27.38;;;14.32;;
75603;SDS011;64187;51.010;13.792;2023-02-28T23:24:29;31.70;;;14.00;;
75603;SDS011;64187;51.010;13.792;2023-02-28T23:29:31;26.77;;;14.40;;
75603;SDS011;64187;51.010;13.792;2023-02-28T23:34:31;30.30;;;13.85;;
75603;SDS011;64187;51.010;13.792;2023-02-28T23:39:30;27.33;;;13.00;;
75603;SDS011;64187;51.010;13.792;2023-02-28T23:44:29;26.48;;;13.50;;
75603;SDS011;64187;51.010;13.792;2023-02-28T23:49:29;26.23;;;13.75;;
75603;SDS011;64187;51.010;13.792;2023-02-28T23:54:28;27.70;;;14.25;;
75603;SDS011;64187;51.010;13.792;2023-02-28T23:59:27;30.67;;;14.25;;
